sensor_id;sensor_type;location;lat;lon;timestamp;P1;durP1;ratioP1;P2;durP2;ratioP2
63444;SDS011;49573;47.682;9.170;2022-11-14T00:01:00;22.10;;;12.88;;
63444;SDS011;49573;47.682;9.170;2022-11-14T00:03:51;21.15;;;12.95;;
63444;SDS011;49573;47.682;9.170;2022-11-14T00:06:37;20.63;;;12.32;;
63444;SDS011;49573;47.682;9.170;2022-11-14T00:09:24;25.33;;;13.48;;
63444;SDS011;49573;47.682;9.170;2022-11-14T00:12:11;23.23;;;13.65;;
63444;SDS011;49573;47.682;9.170;2022-11-14T00:14:57;20.35;;;13.30;;
63444;SDS011;49573;47.682;9.170;2022-11-14T00:17:44;22.30;;;12.77;;
63444;SDS011;49573;47.682;9.170;2022-11-14T00:20:31;22.90;;;13.52;;
63444;SDS011;49573;47.682;9.170;2022-11-14T00:23:17;23.63;;;13.15;;
63444;SDS011;49573;47.682;9.170;2022-11-14T00:26:04;22.65;;;13.20;;
63444;SDS011;49573;47.682;9.170;2022-11-14T00:28:50;22.00;;;13.00;;
63444;SDS011;49573;47.682;9.170;2022-11-14T00:31:36;24.52;;;13.75;;
63444;SDS011;49573;47.682;9.170;2022-11-14T00:34:23;21.48;;;13.13;;
63444;SDS011;49573;47.682;9.170;2022-11-14T00:37:09;23.60;;;13.73;;
63444;SDS011;49573;47.682;9.170;2022-11-14T00:39:55;21.60;;;13.00;;
63444;SDS011;49573;47.682;9.170;2022-11-14T00:42:42;23.20;;;13.95;;
63444;SDS011;49573;47.682;9.170;2022-11-14T00:45:29;22.55;;;12.45;;
63444;SDS011;49573;47.682;9.170;2022-11-14T00:48:15;23.17;;;13.98;;
63444;SDS011;49573;47.682;9.170;2022-11-14T00:51:02;23.77;;;13.83;;
63444;SDS011;49573;47.682;9.170;2022-11-14T00:53:49;23.27;;;13.27;;
63444;SDS011;49573;47.682;9.170;2022-11-14T00:56:35;22.58;;;12.90;;
63444;SDS011;49573;47.682;9.170;2022-11-14T00:59:21;25.35;;;13.50;;
63444;SDS011;49573;47.682;9.170;2022-11-14T01:02:07;26.00;;;13.25;;
63444;SDS011;49573;47.682;9.170;2022-11-14T01:04:53;24.65;;;13.80;;
63444;SDS011;49573;47.682;9.170;2022-11-14T01:07:40;26.10;;;14.30;;
63444;SDS011;49573;47.682;9.170;2022-11-14T01:10:26;21.33;;;12.63;;
63444;SDS011;49573;47.682;9.170;2022-11-14T01:13:13;20.43;;;12.13;;
63444;SDS011;49573;47.682;9.170;2022-11-14T01:16:00;24.48;;;13.32;;
63444;SDS011;49573;47.682;9.170;2022-11-14T01:18:46;23.63;;;13.73;;
63444;SDS011;49573;47.682;9.170;2022-11-14T01:21:32;24.40;;;13.45;;
63444;SDS011;49573;47.682;9.170;2022-11-14T01:24:20;25.75;;;12.88;;
63444;SDS011;49573;47.682;9.170;2022-11-14T01:27:06;24.48;;;13.15;;
63444;SDS011;49573;47.682;9.170;2022-11-14T01:29:52;22.80;;;13.30;;
63444;SDS011;49573;47.682;9.170;2022-11-14T01:32:38;23.17;;;12.80;;
63444;SDS011;49573;47.682;9.170;2022-11-14T01:35:24;26.80;;;14.13;;
63444;SDS011;49573;47.682;9.170;2022-11-14T01:38:11;32.95;;;14.90;;
63444;SDS011;49573;47.682;9.170;2022-11-14T01:41:00;21.55;;;12.70;;
63444;SDS011;49573;47.682;9.170;2022-11-14T01:43:47;25.60;;;13.90;;
63444;SDS011;49573;47.682;9.170;2022-11-14T01:46:34;23.23;;;14.15;;
63444;SDS011;49573;47.682;9.170;2022-11-14T01:49:23;24.98;;;13.98;;
63444;SDS011;49573;47.682;9.170;2022-11-14T01:52:12;24.42;;;14.25;;
63444;SDS011;49573;47.682;9.170;2022-11-14T01:55:02;22.48;;;12.98;;
63444;SDS011;49573;47.682;9.170;2022-11-14T01:57:51;24.17;;;13.35;;
63444;SDS011;49573;47.682;9.170;2022-11-14T02:00:37;24.85;;;13.25;;
63444;SDS011;49573;47.682;9.170;2022-11-14T02:03:24;22.80;;;12.82;;
63444;SDS011;49573;47.682;9.170;2022-11-14T02:06:12;22.80;;;12.97;;
63444;SDS011;49573;47.682;9.170;2022-11-14T02:09:01;22.48;;;12.27;;
63444;SDS011;49573;47.682;9.170;2022-11-14T02:11:49;25.55;;;13.65;;
63444;SDS011;49573;47.682;9.170;2022-11-14T02:14:39;21.88;;;12.93;;
63444;SDS011;49573;47.682;9.170;2022-11-14T02:17:26;23.02;;;13.52;;
63444;SDS011;49573;47.682;9.170;2022-11-14T02:20:21;24.35;;;13.20;;
63444;SDS011;49573;47.682;9.170;2022-11-14T02:23:09;25.20;;;13.95;;
63444;SDS011;49573;47.682;9.170;2022-11-14T02:25:55;23.42;;;13.07;;
63444;SDS011;49573;47.682;9.170;2022-11-14T02:28:42;25.52;;;12.60;;
63444;SDS011;49573;47.682;9.170;2022-11-14T02:31:28;24.20;;;13.02;;
63444;SDS011;49573;47.682;9.170;2022-11-14T02:34:14;25.73;;;15.20;;
63444;SDS011;49573;47.682;9.170;2022-11-14T02:37:05;26.05;;;15.00;;
63444;SDS011;49573;47.682;9.170;2022-11-14T02:39:51;25.13;;;13.32;;
63444;SDS011;49573;47.682;9.170;2022-11-14T02:42:37;25.23;;;13.93;;
63444;SDS011;49573;47.682;9.170;2022-11-14T02:45:24;26.58;;;14.70;;
63444;SDS011;49573;47.682;9.170;2022-11-14T02:48:10;23.90;;;13.57;;
63444;SDS011;49573;47.682;9.170;2022-11-14T02:50:56;24.35;;;13.98;;
63444;SDS011;49573;47.682;9.170;2022-11-14T02:53:43;25.33;;;13.65;;
63444;SDS011;49573;47.682;9.170;2022-11-14T02:56:29;24.30;;;13.48;;
63444;SDS011;49573;47.682;9.170;2022-11-14T02:59:15;28.77;;;13.23;;
63444;SDS011;49573;47.682;9.170;2022-11-14T03:02:02;24.67;;;14.00;;
63444;SDS011;49573;47.682;9.170;2022-11-14T03:04:48;23.77;;;13.50;;
63444;SDS011;49573;47.682;9.170;2022-11-14T03:07:34;24.92;;;14.43;;
63444;SDS011;49573;47.682;9.170;2022-11-14T03:10:22;26.40;;;12.68;;
63444;SDS011;49573;47.682;9.170;2022-11-14T03:13:08;26.05;;;14.25;;
63444;SDS011;49573;47.682;9.170;2022-11-14T03:15:54;25.52;;;13.82;;
63444;SDS011;49573;47.682;9.170;2022-11-14T03:18:40;21.93;;;13.47;;
63444;SDS011;49573;47.682;9.170;2022-11-14T03:21:27;24.63;;;14.32;;
63444;SDS011;49573;47.682;9.170;2022-11-14T03:24:13;23.75;;;13.40;;
63444;SDS011;49573;47.682;9.170;2022-11-14T03:27:00;26.58;;;14.48;;
63444;SDS011;49573;47.682;9.170;2022-11-14T03:29:46;25.55;;;12.63;;
63444;SDS011;49573;47.682;9.170;2022-11-14T03:32:33;25.47;;;13.77;;
63444;SDS011;49573;47.682;9.170;2022-11-14T03:35:19;27.40;;;15.13;;
63444;SDS011;49573;47.682;9.170;2022-11-14T03:38:05;27.58;;;14.55;;
63444;SDS011;49573;47.682;9.170;2022-11-14T03:40:51;26.95;;;14.05;;
63444;SDS011;49573;47.682;9.170;2022-11-14T03:43:38;26.75;;;14.18;;
63444;SDS011;49573;47.682;9.170;2022-11-14T03:46:24;27.10;;;14.48;;
63444;SDS011;49573;47.682;9.170;2022-11-14T03:49:11;28.67;;;14.10;;
63444;SDS011;49573;47.682;9.170;2022-11-14T03:51:57;22.88;;;13.57;;
63444;SDS011;49573;47.682;9.170;2022-11-14T03:54:43;26.95;;;14.73;;
63444;SDS011;49573;47.682;9.170;2022-11-14T03:57:29;27.40;;;14.52;;
63444;SDS011;49573;47.682;9.170;2022-11-14T04:00:17;27.40;;;14.65;;
63444;SDS011;49573;47.682;9.170;2022-11-14T04:03:03;26.75;;;14.60;;
63444;SDS011;49573;47.682;9.170;2022-11-14T04:05:50;27.52;;;15.05;;
63444;SDS011;49573;47.682;9.170;2022-11-14T04:08:38;24.00;;;13.40;;
63444;SDS011;49573;47.682;9.170;2022-11-14T04:11:24;27.88;;;14.57;;
63444;SDS011;49573;47.682;9.170;2022-11-14T04:14:10;27.83;;;14.32;;
63444;SDS011;49573;47.682;9.170;2022-11-14T04:16:57;25.63;;;13.90;;
63444;SDS011;49573;47.682;9.170;2022-11-14T04:19:43;25.00;;;13.80;;
63444;SDS011;49573;47.682;9.170;2022-11-14T04:22:30;25.70;;;13.75;;
63444;SDS011;49573;47.682;9.170;2022-11-14T04:25:16;24.85;;;14.23;;
63444;SDS011;49573;47.682;9.170;2022-11-14T04:28:02;26.20;;;14.80;;
63444;SDS011;49573;47.682;9.170;2022-11-14T04:30:48;24.95;;;13.95;;
63444;SDS011;49573;47.682;9.170;2022-11-14T04:33:36;29.95;;;14.98;;
63444;SDS011;49573;47.682;9.170;2022-11-14T04:36:22;24.73;;;13.05;;
63444;SDS011;49573;47.682;9.170;2022-11-14T04:39:08;25.73;;;14.05;;
63444;SDS011;49573;47.682;9.170;2022-11-14T04:41:54;26.25;;;14.00;;
63444;SDS011;49573;47.682;9.170;2022-11-14T04:44:40;24.02;;;13.35;;
63444;SDS011;49573;47.682;9.170;2022-11-14T04:47:26;24.38;;;12.75;;
63444;SDS011;49573;47.682;9.170;2022-11-14T04:50:13;26.35;;;14.23;;
63444;SDS011;49573;47.682;9.170;2022-11-14T04:52:59;24.48;;;14.60;;
63444;SDS011;49573;47.682;9.170;2022-11-14T04:55:46;25.13;;;13.40;;
63444;SDS011;49573;47.682;9.170;2022-11-14T04:58:32;24.90;;;14.10;;
63444;SDS011;49573;47.682;9.170;2022-11-14T05:01:18;24.57;;;14.00;;
63444;SDS011;49573;47.682;9.170;2022-11-14T05:04:04;25.05;;;13.35;;
63444;SDS011;49573;47.682;9.170;2022-11-14T05:06:51;24.02;;;12.88;;
63444;SDS011;49573;47.682;9.170;2022-11-14T05:09:38;26.88;;;13.95;;
63444;SDS011;49573;47.682;9.170;2022-11-14T05:12:24;24.88;;;13.07;;
63444;SDS011;49573;47.682;9.170;2022-11-14T05:15:10;23.80;;;13.45;;
63444;SDS011;49573;47.682;9.170;2022-11-14T05:17:56;29.40;;;13.48;;
63444;SDS011;49573;47.682;9.170;2022-11-14T05:20:43;26.05;;;13.98;;
63444;SDS011;49573;47.682;9.170;2022-11-14T05:23:30;23.85;;;12.20;;
63444;SDS011;49573;47.682;9.170;2022-11-14T05:26:17;24.95;;;13.70;;
63444;SDS011;49573;47.682;9.170;2022-11-14T05:29:03;25.25;;;13.75;;
63444;SDS011;49573;47.682;9.170;2022-11-14T05:31:49;25.80;;;15.02;;
63444;SDS011;49573;47.682;9.170;2022-11-14T05:34:35;24.63;;;13.70;;
63444;SDS011;49573;47.682;9.170;2022-11-14T05:37:22;23.10;;;12.75;;
63444;SDS011;49573;47.682;9.170;2022-11-14T05:40:10;22.63;;;12.65;;
63444;SDS011;49573;47.682;9.170;2022-11-14T05:42:56;29.50;;;14.07;;
63444;SDS011;49573;47.682;9.170;2022-11-14T05:45:42;23.92;;;14.20;;
63444;SDS011;49573;47.682;9.170;2022-11-14T05:48:29;23.58;;;13.48;;
63444;SDS011;49573;47.682;9.170;2022-11-14T05:51:15;22.63;;;12.88;;
63444;SDS011;49573;47.682;9.170;2022-11-14T05:54:01;21.92;;;13.80;;
63444;SDS011;49573;47.682;9.170;2022-11-14T05:56:49;22.80;;;13.77;;
63444;SDS011;49573;47.682;9.170;2022-11-14T05:59:35;22.80;;;12.32;;
63444;SDS011;49573;47.682;9.170;2022-11-14T06:02:21;21.45;;;12.75;;
63444;SDS011;49573;47.682;9.170;2022-11-14T06:05:07;21.27;;;12.35;;
63444;SDS011;49573;47.682;9.170;2022-11-14T06:07:54;22.67;;;12.53;;
63444;SDS011;49573;47.682;9.170;2022-11-14T06:13:27;25.20;;;13.73;;
63444;SDS011;49573;47.682;9.170;2022-11-14T06:16:15;23.27;;;12.95;;
63444;SDS011;49573;47.682;9.170;2022-11-14T06:19:02;21.60;;;12.48;;
63444;SDS011;49573;47.682;9.170;2022-11-14T06:21:49;20.27;;;12.32;;
63444;SDS011;49573;47.682;9.170;2022-11-14T06:24:35;28.38;;;15.20;;
63444;SDS011;49573;47.682;9.170;2022-11-14T06:27:21;27.00;;;15.30;;
63444;SDS011;49573;47.682;9.170;2022-11-14T06:30:10;23.83;;;13.20;;
63444;SDS011;49573;47.682;9.170;2022-11-14T06:32:56;22.35;;;13.13;;
63444;SDS011;49573;47.682;9.170;2022-11-14T06:35:45;23.15;;;12.90;;
63444;SDS011;49573;47.682;9.170;2022-11-14T06:38:32;26.20;;;14.27;;
63444;SDS011;49573;47.682;9.170;2022-11-14T06:44:06;24.25;;;13.30;;
63444;SDS011;49573;47.682;9.170;2022-11-14T06:46:54;24.88;;;13.55;;
63444;SDS011;49573;47.682;9.170;2022-11-14T06:49:40;22.42;;;13.45;;
63444;SDS011;49573;47.682;9.170;2022-11-14T06:52:26;23.58;;;13.65;;
63444;SDS011;49573;47.682;9.170;2022-11-14T06:55:13;21.30;;;14.15;;
63444;SDS011;49573;47.682;9.170;2022-11-14T06:57:59;22.53;;;13.47;;
63444;SDS011;49573;47.682;9.170;2022-11-14T07:00:45;23.27;;;13.55;;
63444;SDS011;49573;47.682;9.170;2022-11-14T07:03:33;23.65;;;13.32;;
63444;SDS011;49573;47.682;9.170;2022-11-14T07:06:19;24.80;;;14.93;;
63444;SDS011;49573;47.682;9.170;2022-11-14T07:09:08;22.52;;;13.50;;
63444;SDS011;49573;47.682;9.170;2022-11-14T07:11:55;20.50;;;12.52;;
63444;SDS011;49573;47.682;9.170;2022-11-14T07:14:41;22.38;;;13.15;;
63444;SDS011;49573;47.682;9.170;2022-11-14T07:17:27;21.13;;;12.95;;
63444;SDS011;49573;47.682;9.170;2022-11-14T07:20:15;19.45;;;11.80;;
63444;SDS011;49573;47.682;9.170;2022-11-14T07:23:02;20.05;;;12.57;;
63444;SDS011;49573;47.682;9.170;2022-11-14T07:25:48;25.42;;;11.88;;
63444;SDS011;49573;47.682;9.170;2022-11-14T07:28:35;21.02;;;12.45;;
63444;SDS011;49573;47.682;9.170;2022-11-14T07:31:22;26.60;;;13.63;;
63444;SDS011;49573;47.682;9.170;2022-11-14T07:34:08;24.17;;;13.00;;
63444;SDS011;49573;47.682;9.170;2022-11-14T07:36:56;21.30;;;12.38;;
63444;SDS011;49573;47.682;9.170;2022-11-14T07:39:42;22.40;;;14.07;;
63444;SDS011;49573;47.682;9.170;2022-11-14T07:42:30;27.90;;;17.08;;
63444;SDS011;49573;47.682;9.170;2022-11-14T07:45:16;22.38;;;14.30;;
63444;SDS011;49573;47.682;9.170;2022-11-14T07:48:04;24.05;;;13.52;;
63444;SDS011;49573;47.682;9.170;2022-11-14T07:50:50;20.60;;;13.07;;
63444;SDS011;49573;47.682;9.170;2022-11-14T07:53:38;27.65;;;14.95;;
63444;SDS011;49573;47.682;9.170;2022-11-14T07:56:24;25.83;;;15.30;;
63444;SDS011;49573;47.682;9.170;2022-11-14T07:59:11;24.25;;;13.80;;
63444;SDS011;49573;47.682;9.170;2022-11-14T08:01:57;26.80;;;14.60;;
63444;SDS011;49573;47.682;9.170;2022-11-14T08:04:43;25.48;;;14.35;;
63444;SDS011;49573;47.682;9.170;2022-11-14T08:07:29;25.30;;;14.57;;
63444;SDS011;49573;47.682;9.170;2022-11-14T08:10:16;33.53;;;19.17;;
63444;SDS011;49573;47.682;9.170;2022-11-14T08:13:04;35.35;;;20.55;;
63444;SDS011;49573;47.682;9.170;2022-11-14T08:15:52;35.17;;;24.00;;
63444;SDS011;49573;47.682;9.170;2022-11-14T08:18:38;26.45;;;19.77;;
63444;SDS011;49573;47.682;9.170;2022-11-14T08:21:25;26.63;;;15.32;;
63444;SDS011;49573;47.682;9.170;2022-11-14T08:24:11;24.35;;;14.05;;
63444;SDS011;49573;47.682;9.170;2022-11-14T08:26:58;25.13;;;13.57;;
63444;SDS011;49573;47.682;9.170;2022-11-14T08:29:45;23.02;;;12.95;;
63444;SDS011;49573;47.682;9.170;2022-11-14T08:32:31;25.00;;;13.77;;
63444;SDS011;49573;47.682;9.170;2022-11-14T08:35:17;21.95;;;13.60;;
63444;SDS011;49573;47.682;9.170;2022-11-14T08:38:03;21.92;;;13.55;;
63444;SDS011;49573;47.682;9.170;2022-11-14T08:40:49;24.63;;;13.25;;
63444;SDS011;49573;47.682;9.170;2022-11-14T08:43:36;20.13;;;12.63;;
63444;SDS011;49573;47.682;9.170;2022-11-14T08:46:22;19.67;;;12.55;;
63444;SDS011;49573;47.682;9.170;2022-11-14T08:49:08;25.27;;;13.80;;
63444;SDS011;49573;47.682;9.170;2022-11-14T08:51:55;20.52;;;12.55;;
63444;SDS011;49573;47.682;9.170;2022-11-14T08:54:41;21.87;;;12.80;;
63444;SDS011;49573;47.682;9.170;2022-11-14T08:57:27;21.70;;;12.57;;
63444;SDS011;49573;47.682;9.170;2022-11-14T09:00:15;20.80;;;12.52;;
63444;SDS011;49573;47.682;9.170;2022-11-14T09:03:05;20.63;;;12.68;;
63444;SDS011;49573;47.682;9.170;2022-11-14T09:05:52;21.33;;;12.80;;
63444;SDS011;49573;47.682;9.170;2022-11-14T09:08:38;21.83;;;13.23;;
63444;SDS011;49573;47.682;9.170;2022-11-14T09:11:24;17.02;;;12.00;;
63444;SDS011;49573;47.682;9.170;2022-11-14T09:14:10;23.23;;;13.77;;
63444;SDS011;49573;47.682;9.170;2022-11-14T09:16:58;24.00;;;12.80;;
63444;SDS011;49573;47.682;9.170;2022-11-14T09:19:44;23.95;;;13.10;;
63444;SDS011;49573;47.682;9.170;2022-11-14T09:22:30;23.75;;;13.38;;
63444;SDS011;49573;47.682;9.170;2022-11-14T09:25:16;21.02;;;13.05;;
63444;SDS011;49573;47.682;9.170;2022-11-14T09:28:03;20.35;;;12.27;;
63444;SDS011;49573;47.682;9.170;2022-11-14T09:30:50;22.77;;;12.60;;
63444;SDS011;49573;47.682;9.170;2022-11-14T09:33:38;20.05;;;12.65;;
63444;SDS011;49573;47.682;9.170;2022-11-14T09:36:24;26.08;;;14.38;;
63444;SDS011;49573;47.682;9.170;2022-11-14T09:39:10;63.58;;;33.97;;
63444;SDS011;49573;47.682;9.170;2022-11-14T09:42:01;34.03;;;20.40;;
63444;SDS011;49573;47.682;9.170;2022-11-14T09:44:57;24.52;;;13.55;;
63444;SDS011;49573;47.682;9.170;2022-11-14T09:47:47;22.98;;;13.02;;
63444;SDS011;49573;47.682;9.170;2022-11-14T09:50:39;21.80;;;11.82;;
63444;SDS011;49573;47.682;9.170;2022-11-14T09:53:29;17.58;;;11.82;;
63444;SDS011;49573;47.682;9.170;2022-11-14T09:56:19;17.70;;;11.60;;
63444;SDS011;49573;47.682;9.170;2022-11-14T09:59:08;15.57;;;10.10;;
63444;SDS011;49573;47.682;9.170;2022-11-14T10:01:57;17.55;;;10.10;;
63444;SDS011;49573;47.682;9.170;2022-11-14T10:04:53;14.50;;;9.27;;
63444;SDS011;49573;47.682;9.170;2022-11-14T10:08:02;15.43;;;9.05;;
63444;SDS011;49573;47.682;9.170;2022-11-14T10:11:00;21.50;;;11.10;;
63444;SDS011;49573;47.682;9.170;2022-11-14T10:13:53;20.40;;;13.23;;
63444;SDS011;49573;47.682;9.170;2022-11-14T10:17:04;21.83;;;13.48;;
63444;SDS011;49573;47.682;9.170;2022-11-14T10:22:51;32.55;;;19.45;;
63444;SDS011;49573;47.682;9.170;2022-11-14T10:25:52;26.73;;;16.77;;
63444;SDS011;49573;47.682;9.170;2022-11-14T10:28:46;17.75;;;10.35;;
63444;SDS011;49573;47.682;9.170;2022-11-14T10:31:45;17.83;;;11.38;;
63444;SDS011;49573;47.682;9.170;2022-11-14T10:34:40;23.58;;;13.02;;
63444;SDS011;49573;47.682;9.170;2022-11-14T10:37:32;23.63;;;14.43;;
63444;SDS011;49573;47.682;9.170;2022-11-14T10:40:23;22.70;;;13.32;;
63444;SDS011;49573;47.682;9.170;2022-11-14T10:43:14;31.65;;;17.40;;
63444;SDS011;49573;47.682;9.170;2022-11-14T10:46:06;18.55;;;11.20;;
63444;SDS011;49573;47.682;9.170;2022-11-14T10:48:57;20.92;;;13.38;;
63444;SDS011;49573;47.682;9.170;2022-11-14T10:51:45;19.02;;;13.48;;
63444;SDS011;49573;47.682;9.170;2022-11-14T10:54:35;17.10;;;12.07;;
63444;SDS011;49573;47.682;9.170;2022-11-14T10:57:27;14.75;;;8.65;;
63444;SDS011;49573;47.682;9.170;2022-11-14T11:00:15;19.90;;;11.60;;
63444;SDS011;49573;47.682;9.170;2022-11-14T11:03:03;24.13;;;14.48;;
63444;SDS011;49573;47.682;9.170;2022-11-14T11:05:51;16.27;;;10.20;;
63444;SDS011;49573;47.682;9.170;2022-11-14T11:08:44;26.48;;;14.68;;
63444;SDS011;49573;47.682;9.170;2022-11-14T11:11:54;14.93;;;9.52;;
63444;SDS011;49573;47.682;9.170;2022-11-14T11:14:43;16.23;;;11.73;;
63444;SDS011;49573;47.682;9.170;2022-11-14T11:17:30;12.68;;;9.15;;
63444;SDS011;49573;47.682;9.170;2022-11-14T11:20:22;9.88;;;6.70;;
63444;SDS011;49573;47.682;9.170;2022-11-14T11:23:16;14.10;;;8.05;;
63444;SDS011;49573;47.682;9.170;2022-11-14T11:26:04;18.77;;;13.10;;
63444;SDS011;49573;47.682;9.170;2022-11-14T11:29:00;25.30;;;15.73;;
63444;SDS011;49573;47.682;9.170;2022-11-14T11:31:51;18.17;;;10.48;;
63444;SDS011;49573;47.682;9.170;2022-11-14T11:34:38;15.30;;;8.35;;
63444;SDS011;49573;47.682;9.170;2022-11-14T11:37:25;14.00;;;8.77;;
63444;SDS011;49573;47.682;9.170;2022-11-14T11:40:16;14.27;;;8.55;;
63444;SDS011;49573;47.682;9.170;2022-11-14T11:43:08;21.42;;;11.75;;
63444;SDS011;49573;47.682;9.170;2022-11-14T11:45:58;8.82;;;6.10;;
63444;SDS011;49573;47.682;9.170;2022-11-14T11:49:04;22.83;;;12.95;;
63444;SDS011;49573;47.682;9.170;2022-11-14T11:51:57;12.57;;;7.60;;
63444;SDS011;49573;47.682;9.170;2022-11-14T11:54:54;19.45;;;10.48;;
63444;SDS011;49573;47.682;9.170;2022-11-14T11:57:45;16.17;;;10.02;;
63444;SDS011;49573;47.682;9.170;2022-11-14T12:00:35;14.75;;;9.23;;
63444;SDS011;49573;47.682;9.170;2022-11-14T12:03:21;10.97;;;7.00;;
63444;SDS011;49573;47.682;9.170;2022-11-14T12:06:13;10.65;;;7.00;;
63444;SDS011;49573;47.682;9.170;2022-11-14T12:09:05;11.65;;;6.80;;
63444;SDS011;49573;47.682;9.170;2022-11-14T12:11:59;9.48;;;6.40;;
63444;SDS011;49573;47.682;9.170;2022-11-14T12:15:02;11.00;;;6.50;;
63444;SDS011;49573;47.682;9.170;2022-11-14T12:18:04;10.68;;;6.63;;
63444;SDS011;49573;47.682;9.170;2022-11-14T12:21:16;10.68;;;6.40;;
63444;SDS011;49573;47.682;9.170;2022-11-14T12:27:54;10.30;;;6.82;;
63444;SDS011;49573;47.682;9.170;2022-11-14T12:30:55;10.60;;;6.63;;
63444;SDS011;49573;47.682;9.170;2022-11-14T12:33:45;9.85;;;6.88;;
63444;SDS011;49573;47.682;9.170;2022-11-14T12:36:37;9.10;;;7.13;;
63444;SDS011;49573;47.682;9.170;2022-11-14T12:39:27;8.55;;;6.50;;
63444;SDS011;49573;47.682;9.170;2022-11-14T12:42:17;7.22;;;5.72;;
63444;SDS011;49573;47.682;9.170;2022-11-14T12:45:15;8.20;;;6.15;;
63444;SDS011;49573;47.682;9.170;2022-11-14T12:48:41;8.38;;;5.40;;
63444;SDS011;49573;47.682;9.170;2022-11-14T12:51:47;7.90;;;5.40;;
63444;SDS011;49573;47.682;9.170;2022-11-14T12:54:41;7.72;;;5.60;;
63444;SDS011;49573;47.682;9.170;2022-11-14T12:57:29;7.43;;;5.75;;
63444;SDS011;49573;47.682;9.170;2022-11-14T13:00:31;9.40;;;5.72;;
63444;SDS011;49573;47.682;9.170;2022-11-14T13:03:23;8.52;;;5.57;;
63444;SDS011;49573;47.682;9.170;2022-11-14T13:06:19;7.65;;;5.82;;
63444;SDS011;49573;47.682;9.170;2022-11-14T13:12:25;8.93;;;5.88;;
63444;SDS011;49573;47.682;9.170;2022-11-14T13:15:33;9.38;;;6.38;;
63444;SDS011;49573;47.682;9.170;2022-11-14T13:18:50;8.45;;;5.95;;
63444;SDS011;49573;47.682;9.170;2022-11-14T13:25:18;11.68;;;6.45;;
63444;SDS011;49573;47.682;9.170;2022-11-14T13:31:44;9.18;;;6.60;;
63444;SDS011;49573;47.682;9.170;2022-11-14T13:34:35;9.13;;;5.97;;
63444;SDS011;49573;47.682;9.170;2022-11-14T13:37:30;8.40;;;5.70;;
63444;SDS011;49573;47.682;9.170;2022-11-14T13:40:25;8.60;;;6.28;;
63444;SDS011;49573;47.682;9.170;2022-11-14T13:43:18;9.50;;;6.68;;
63444;SDS011;49573;47.682;9.170;2022-11-14T13:46:09;9.88;;;6.28;;
63444;SDS011;49573;47.682;9.170;2022-11-14T13:49:06;8.98;;;6.20;;
63444;SDS011;49573;47.682;9.170;2022-11-14T13:52:06;8.88;;;6.65;;
63444;SDS011;49573;47.682;9.170;2022-11-14T13:54:57;8.95;;;6.45;;
63444;SDS011;49573;47.682;9.170;2022-11-14T13:57:46;9.65;;;5.68;;
63444;SDS011;49573;47.682;9.170;2022-11-14T14:00:52;7.95;;;5.70;;
63444;SDS011;49573;47.682;9.170;2022-11-14T14:07:04;8.13;;;6.00;;
63444;SDS011;49573;47.682;9.170;2022-11-14T14:09:59;9.13;;;6.53;;
63444;SDS011;49573;47.682;9.170;2022-11-14T14:12:58;8.98;;;6.78;;
63444;SDS011;49573;47.682;9.170;2022-11-14T14:15:56;9.05;;;6.38;;
63444;SDS011;49573;47.682;9.170;2022-11-14T14:18:52;9.07;;;6.05;;
63444;SDS011;49573;47.682;9.170;2022-11-14T14:21:47;9.23;;;6.63;;
63444;SDS011;49573;47.682;9.170;2022-11-14T14:24:45;8.27;;;6.22;;
63444;SDS011;49573;47.682;9.170;2022-11-14T14:27:42;9.73;;;6.50;;
63444;SDS011;49573;47.682;9.170;2022-11-14T14:30:38;8.90;;;6.50;;
63444;SDS011;49573;47.682;9.170;2022-11-14T14:33:24;9.00;;;6.27;;
63444;SDS011;49573;47.682;9.170;2022-11-14T14:36:17;10.00;;;5.93;;
63444;SDS011;49573;47.682;9.170;2022-11-14T14:39:10;9.73;;;6.05;;
63444;SDS011;49573;47.682;9.170;2022-11-14T14:42:01;8.55;;;5.57;;
63444;SDS011;49573;47.682;9.170;2022-11-14T14:44:56;9.35;;;6.22;;
63444;SDS011;49573;47.682;9.170;2022-11-14T14:47:44;9.95;;;6.30;;
63444;SDS011;49573;47.682;9.170;2022-11-14T14:50:33;8.80;;;6.35;;
63444;SDS011;49573;47.682;9.170;2022-11-14T14:53:23;9.40;;;6.05;;
63444;SDS011;49573;47.682;9.170;2022-11-14T14:56:16;8.80;;;6.18;;
63444;SDS011;49573;47.682;9.170;2022-11-14T14:59:16;10.10;;;6.72;;
63444;SDS011;49573;47.682;9.170;2022-11-14T15:02:07;11.27;;;7.40;;
63444;SDS011;49573;47.682;9.170;2022-11-14T15:04:57;9.57;;;5.95;;
63444;SDS011;49573;47.682;9.170;2022-11-14T15:10:31;9.25;;;6.50;;
63444;SDS011;49573;47.682;9.170;2022-11-14T15:13:18;9.43;;;6.55;;
63444;SDS011;49573;47.682;9.170;2022-11-14T15:16:05;11.15;;;6.85;;
63444;SDS011;49573;47.682;9.170;2022-11-14T15:18:54;9.30;;;6.28;;
63444;SDS011;49573;47.682;9.170;2022-11-14T15:21:41;9.70;;;6.35;;
63444;SDS011;49573;47.682;9.170;2022-11-14T15:24:28;10.40;;;6.50;;
63444;SDS011;49573;47.682;9.170;2022-11-14T15:27:15;8.85;;;6.30;;
63444;SDS011;49573;47.682;9.170;2022-11-14T15:30:04;9.85;;;6.25;;
63444;SDS011;49573;47.682;9.170;2022-11-14T15:32:52;10.80;;;7.03;;
63444;SDS011;49573;47.682;9.170;2022-11-14T15:35:40;13.05;;;6.43;;
63444;SDS011;49573;47.682;9.170;2022-11-14T15:38:26;8.52;;;6.22;;
63444;SDS011;49573;47.682;9.170;2022-11-14T15:41:17;9.37;;;6.47;;
63444;SDS011;49573;47.682;9.170;2022-11-14T15:44:27;12.88;;;6.90;;
63444;SDS011;49573;47.682;9.170;2022-11-14T15:47:17;10.98;;;7.22;;
63444;SDS011;49573;47.682;9.170;2022-11-14T15:50:20;12.10;;;6.47;;
63444;SDS011;49573;47.682;9.170;2022-11-14T15:53:16;8.65;;;6.45;;
63444;SDS011;49573;47.682;9.170;2022-11-14T15:56:09;10.35;;;6.50;;
63444;SDS011;49573;47.682;9.170;2022-11-14T15:58:57;9.68;;;6.30;;
63444;SDS011;49573;47.682;9.170;2022-11-14T16:01:43;11.10;;;5.70;;
63444;SDS011;49573;47.682;9.170;2022-11-14T16:04:32;13.25;;;7.93;;
63444;SDS011;49573;47.682;9.170;2022-11-14T16:07:20;11.65;;;7.90;;
63444;SDS011;49573;47.682;9.170;2022-11-14T16:10:11;11.00;;;6.95;;
63444;SDS011;49573;47.682;9.170;2022-11-14T16:12:59;9.82;;;6.40;;
63444;SDS011;49573;47.682;9.170;2022-11-14T16:15:45;11.00;;;6.00;;
63444;SDS011;49573;47.682;9.170;2022-11-14T16:18:31;11.07;;;6.47;;
63444;SDS011;49573;47.682;9.170;2022-11-14T16:21:17;8.57;;;6.05;;
63444;SDS011;49573;47.682;9.170;2022-11-14T16:24:04;9.40;;;6.30;;
63444;SDS011;49573;47.682;9.170;2022-11-14T16:26:52;11.55;;;6.70;;
63444;SDS011;49573;47.682;9.170;2022-11-14T16:29:38;11.07;;;6.45;;
63444;SDS011;49573;47.682;9.170;2022-11-14T16:32:24;10.48;;;6.45;;
63444;SDS011;49573;47.682;9.170;2022-11-14T16:35:13;10.52;;;6.35;;
63444;SDS011;49573;47.682;9.170;2022-11-14T16:38:00;9.85;;;6.53;;
63444;SDS011;49573;47.682;9.170;2022-11-14T16:40:46;15.35;;;8.40;;
63444;SDS011;49573;47.682;9.170;2022-11-14T16:43:34;10.65;;;7.75;;
63444;SDS011;49573;47.682;9.170;2022-11-14T16:46:20;13.38;;;7.68;;
63444;SDS011;49573;47.682;9.170;2022-11-14T16:49:06;9.70;;;7.00;;
63444;SDS011;49573;47.682;9.170;2022-11-14T16:51:54;11.32;;;6.53;;
63444;SDS011;49573;47.682;9.170;2022-11-14T16:54:42;11.60;;;6.70;;
63444;SDS011;49573;47.682;9.170;2022-11-14T16:57:28;10.18;;;6.55;;
63444;SDS011;49573;47.682;9.170;2022-11-14T17:00:16;11.65;;;6.20;;
63444;SDS011;49573;47.682;9.170;2022-11-14T17:03:02;8.50;;;6.55;;
63444;SDS011;49573;47.682;9.170;2022-11-14T17:05:49;9.65;;;6.93;;